Airfield :
LOGIN :

Register | Disclaimer

   EN    FR    IT 

 










Legend :    VFR   Marginal VFR   IFR   Intensive IFR   Very Intensive IFR
Visi :
Ceiling :
>= 8 km
>= 3000ft
5 to 8 km
1000 to 3000 ft
1500m to 5 km
500 to 1000 ft
800 to 1500m
200 to 500 ft
< 800m
< 200 ft
Symbols :   Thunderstorms  Fog  Heavy snow  Heavy precipitations  Wind > 20 kt
SIGMETs :     Misc.  Thunderstorms  Icing  Turbulence  Mountain Waves  Volcanic Ashes






- Airport Elevation : 3006 ft
- IATA code : LEN


LELN - Leon

CURRENT METAR :
  • 130730Z VRB02KT CAVOK 13/08 Q1019

EXPIRED METARs :
  • 130700Z 33003KT 260V040 CAVOK 12/08 Q1019
  • 130630Z VRB01KT CAVOK 10/07 Q1018
  • 130600Z VRB02KT CAVOK 10/07 Q1018
  • 130530Z AUTO 29005KT 260V330 CAVOK 09/07 Q1018
  • 130500Z AUTO 30006KT 260V330 CAVOK 10/08 Q1018

TAF TAF LELN
Valid from the 13 at 03:00 until the 14 at 03:00 UTC


130200Z 1303/1403 27006KT CAVOK TX26/1315Z TN08/1305Z



MET'MAP, your aeronautical weather chart ! - Copyright ORBIFLY December 2007 - Disclaimer

ORBIFLY MET'MAP TEAM :

Programming & Development : Alexandra Zaïnal
Concept & original design : Baudouin d'Aumeries
Assistance for programming : Marc-Olivier Méhu
Technical & hardware support : Manuel Goepfert

Contact : metmap@orbifly.com




SOURCES & CREDITS :

   NOAA